METARs


 

Curacao


TNCC 241100Z 10009KT 9999 FEW020 SCT030 26/21 Q1013 NOSIG=

 

Aruba


TNCA 241100Z 08007KT 9999 FEW019 25/20 Q1013 NOSIG

 

Bonaire


TNCB 241055Z AUTO 08005KT 9999 SCT019/// BKN023/// 25/22 Q1013

 

 

TAFs


 

Curacao


TAF TNCC 031115Z 0312/0412 11013KT 9999 FEW020

Aruba


TAF TNCA 241115Z 2412/2512 08015KT 9999 SCT020

Bonaire


TAF TAF TNCB 241022Z 2412/2518 08012KT 9999 SCT020

 

 

Caribbean Surface Analysis